createdAt,value
2023-05-11T00:00:47.491Z,13.90
2023-05-11T00:02:09.727Z,13.90
2023-05-11T00:03:32.470Z,13.90
2023-05-11T00:04:55.474Z,13.90
2023-05-11T00:06:17.529Z,13.80
2023-05-11T00:07:39.589Z,13.80
2023-05-11T00:09:01.580Z,13.80
2023-05-11T00:10:23.830Z,13.70
2023-05-11T00:11:45.871Z,13.70
2023-05-11T00:13:07.920Z,13.70
2023-05-11T00:14:30.099Z,13.70
2023-05-11T00:15:52.269Z,13.70
2023-05-11T00:17:14.337Z,13.70
2023-05-11T00:18:36.498Z,13.70
2023-05-11T00:19:58.550Z,13.60
2023-05-11T00:21:22.723Z,13.60
2023-05-11T00:22:44.951Z,13.60
2023-05-11T00:24:07.657Z,13.60
2023-05-11T00:25:29.686Z,13.60
2023-05-11T00:26:52.189Z,13.60
2023-05-11T00:28:14.210Z,13.60
2023-05-11T00:29:36.254Z,13.60
2023-05-11T00:30:58.553Z,13.60
2023-05-11T00:32:20.812Z,13.60
2023-05-11T00:33:42.995Z,13.60
2023-05-11T00:35:05.422Z,13.60
2023-05-11T00:36:27.461Z,13.70
2023-05-11T00:37:49.601Z,13.70
2023-05-11T00:39:12.555Z,13.60
2023-05-11T00:40:34.727Z,13.60
2023-05-11T00:41:56.755Z,13.60
2023-05-11T00:43:18.848Z,13.60
2023-05-11T00:44:40.852Z,13.60
2023-05-11T00:46:03.790Z,13.60
2023-05-11T00:47:26.813Z,13.60
2023-05-11T00:48:48.908Z,13.60
2023-05-11T00:50:11.199Z,13.50
2023-05-11T00:51:33.797Z,13.50
2023-05-11T00:52:57.709Z,13.50
2023-05-11T00:54:20.431Z,13.40
2023-05-11T00:55:42.739Z,13.40
2023-05-11T00:57:04.926Z,13.40
2023-05-11T00:58:27.337Z,13.40
2023-05-11T00:59:49.855Z,13.40
2023-05-11T01:01:12.244Z,13.40
2023-05-11T01:02:34.662Z,13.40
2023-05-11T01:03:57.796Z,13.30
2023-05-11T01:05:20.208Z,13.40
2023-05-11T01:06:51.603Z,13.40
2023-05-11T01:08:24.485Z,13.30
2023-05-11T01:10:45.419Z,13.40
2023-05-11T01:12:13.122Z,13.30
2023-05-11T01:13:42.620Z,13.30
2023-05-11T01:15:27.523Z,13.30
2023-05-11T01:16:55.835Z,13.30
2023-05-11T01:18:31.396Z,13.30
2023-05-11T01:20:05.939Z,13.30
2023-05-11T01:21:33.286Z,13.30
2023-05-11T01:23:07.145Z,13.30
2023-05-11T01:24:48.915Z,13.30
2023-05-11T01:26:35.439Z,13.30
2023-05-11T01:28:09.505Z,13.30
2023-05-11T01:29:49.367Z,13.20
2023-05-11T01:31:13.361Z,13.20
2023-05-11T01:32:40.829Z,13.20
2023-05-11T01:34:13.024Z,13.20
2023-05-11T01:35:41.243Z,13.20
2023-05-11T01:37:11.506Z,13.20
2023-05-11T01:38:38.423Z,13.20
2023-05-11T01:40:07.757Z,13.20
2023-05-11T01:41:33.576Z,13.20
2023-05-11T01:43:01.903Z,13.20
2023-05-11T01:44:27.595Z,13.20
2023-05-11T01:45:52.435Z,13.20
2023-05-11T01:47:16.197Z,13.20
2023-05-11T01:48:42.395Z,13.20
2023-05-11T01:50:06.404Z,13.20
2023-05-11T01:51:33.552Z,13.20
2023-05-11T01:52:55.747Z,13.20
2023-05-11T01:54:19.936Z,13.20
2023-05-11T01:55:43.501Z,13.20
2023-05-11T01:57:06.898Z,13.20
2023-05-11T01:58:30.118Z,13.20
2023-05-11T01:59:53.761Z,13.20
2023-05-11T02:01:17.608Z,13.20
2023-05-11T02:02:40.930Z,13.20
2023-05-11T02:04:04.860Z,13.10
2023-05-11T02:05:29.971Z,13.10
2023-05-11T02:06:54.055Z,13.10
2023-05-11T02:08:17.154Z,13.10
2023-05-11T02:09:40.652Z,13.10
2023-05-11T02:11:04.123Z,13.00
2023-05-11T02:12:27.703Z,13.00
2023-05-11T02:13:51.834Z,13.00
2023-05-11T02:15:15.132Z,13.00
2023-05-11T02:16:38.597Z,13.00
2023-05-11T02:18:01.748Z,13.00
2023-05-11T02:19:24.461Z,13.00
2023-05-11T02:20:47.678Z,13.00
2023-05-11T02:22:11.102Z,13.00
2023-05-11T02:23:33.736Z,13.00
2023-05-11T02:24:55.896Z,13.00
2023-05-11T02:26:18.085Z,13.00
2023-05-11T02:27:40.720Z,13.00
2023-05-11T02:29:03.017Z,13.00
2023-05-11T02:30:28.653Z,13.00
2023-05-11T02:31:56.315Z,13.00
2023-05-11T02:33:24.593Z,13.00
2023-05-11T02:34:54.354Z,13.00
2023-05-11T02:36:21.288Z,13.00
2023-05-11T02:37:46.393Z,13.00
2023-05-11T02:39:12.541Z,13.00
2023-05-11T02:40:39.848Z,13.00
2023-05-11T02:42:10.811Z,13.00
2023-05-11T02:43:36.780Z,13.00
2023-05-11T02:45:02.531Z,13.00
2023-05-11T02:46:29.552Z,13.00
2023-05-11T02:47:56.619Z,13.10
2023-05-11T02:49:22.061Z,13.10
2023-05-11T02:50:44.506Z,13.10
2023-05-11T02:52:08.107Z,13.10
2023-05-11T02:53:33.521Z,13.10
2023-05-11T02:54:58.991Z,13.10
2023-05-11T02:56:22.080Z,13.20
2023-05-11T02:57:45.345Z,13.10
2023-05-11T02:59:07.499Z,13.10
2023-05-11T03:00:29.810Z,13.10
2023-05-11T03:01:54.152Z,13.20
2023-05-11T03:03:16.470Z,13.20
2023-05-11T03:04:42.121Z,13.20
2023-05-11T03:06:04.448Z,13.20
2023-05-11T03:07:26.580Z,13.20
2023-05-11T03:08:48.898Z,13.20
2023-05-11T03:10:11.484Z,13.20
2023-05-11T03:11:33.960Z,13.20
2023-05-11T03:12:56.780Z,13.20
2023-05-11T03:14:19.051Z,13.20
2023-05-11T03:15:41.629Z,13.20
2023-05-11T03:17:04.504Z,13.20
2023-05-11T03:18:26.943Z,13.30
2023-05-11T03:19:49.896Z,13.30
2023-05-11T03:21:14.790Z,13.30
2023-05-11T03:22:38.199Z,13.30
2023-05-11T03:24:01.034Z,13.30
2023-05-11T03:25:24.830Z,13.30
2023-05-11T03:26:48.069Z,13.30
2023-05-11T03:28:11.130Z,13.30
2023-05-11T03:29:35.925Z,13.40
2023-05-11T03:30:58.040Z,13.40
2023-05-11T03:32:20.348Z,13.40
2023-05-11T03:33:42.647Z,13.40
2023-05-11T03:35:05.243Z,13.40
2023-05-11T03:36:27.886Z,13.40
2023-05-11T03:37:52.418Z,13.50
2023-05-11T03:39:16.512Z,13.50
2023-05-11T03:40:41.136Z,13.50
2023-05-11T03:42:05.058Z,13.60
2023-05-11T03:43:31.790Z,13.60
2023-05-11T03:44:58.393Z,13.60
2023-05-11T03:46:22.832Z,13.70
2023-05-11T03:47:48.073Z,13.70
2023-05-11T03:49:13.411Z,13.80
2023-05-11T03:50:38.042Z,13.80
2023-05-11T03:52:00.456Z,13.90
2023-05-11T03:53:22.590Z,14.20
2023-05-11T03:54:44.923Z,14.50
2023-05-11T03:56:07.721Z,14.80
2023-05-11T03:57:30.320Z,14.90
2023-05-11T03:58:53.012Z,14.90
2023-05-11T04:00:16.429Z,14.80
2023-05-11T04:01:38.723Z,14.70
2023-05-11T04:03:05.591Z,14.60
2023-05-11T04:04:31.367Z,14.60
2023-05-11T04:05:53.518Z,14.50
2023-05-11T04:07:15.581Z,14.40
2023-05-11T04:08:37.648Z,14.40
2023-05-11T04:09:59.650Z,14.40
2023-05-11T04:11:22.178Z,14.40
2023-05-11T04:12:44.251Z,14.30
2023-05-11T04:14:06.313Z,14.40
2023-05-11T04:15:28.646Z,14.40
2023-05-11T04:16:50.820Z,14.40
2023-05-11T04:18:12.959Z,14.50
2023-05-11T04:19:35.035Z,14.40
2023-05-11T04:20:57.164Z,14.50
2023-05-11T04:22:19.249Z,14.50
2023-05-11T04:23:41.271Z,14.50
2023-05-11T04:25:04.323Z,14.50
2023-05-11T04:26:26.733Z,14.60
2023-05-11T04:27:48.886Z,14.60
2023-05-11T04:29:10.965Z,14.60
2023-05-11T04:30:33.069Z,14.60
2023-05-11T04:31:55.287Z,14.70
2023-05-11T04:33:17.354Z,14.80
2023-05-11T04:34:40.012Z,14.80
2023-05-11T04:36:02.092Z,14.80
2023-05-11T04:37:24.188Z,14.80
2023-05-11T04:38:46.300Z,14.90
2023-05-11T04:40:09.150Z,14.90
2023-05-11T04:41:31.416Z,14.90
2023-05-11T04:42:53.456Z,15.00
2023-05-11T04:44:15.597Z,15.00
2023-05-11T04:45:37.632Z,15.00
2023-05-11T04:46:59.866Z,15.00
2023-05-11T04:48:22.086Z,15.00
2023-05-11T04:49:44.314Z,15.10
2023-05-11T04:51:06.874Z,15.10
2023-05-11T04:52:28.926Z,15.10
2023-05-11T04:53:50.954Z,15.10
2023-05-11T04:55:13.034Z,15.20
2023-05-11T04:56:40.354Z,15.20
2023-05-11T04:58:02.419Z,15.20
2023-05-11T04:59:24.612Z,15.30
2023-05-11T05:00:46.822Z,15.30
2023-05-11T05:02:08.872Z,15.40
2023-05-11T05:03:30.996Z,15.50
2023-05-11T05:04:53.090Z,15.60
2023-05-11T05:06:15.234Z,15.70
2023-05-11T05:07:37.596Z,15.80
2023-05-11T05:08:59.736Z,15.90
2023-05-11T05:10:22.099Z,16.00
2023-05-11T05:11:44.197Z,16.10
2023-05-11T05:13:06.707Z,16.30
2023-05-11T05:14:28.961Z,16.60
2023-05-11T05:15:51.008Z,17.10
2023-05-11T05:17:13.187Z,17.90
2023-05-11T05:18:35.470Z,18.90
2023-05-11T05:20:00.685Z,20.00
2023-05-11T05:21:22.771Z,21.10
2023-05-11T05:22:44.843Z,22.10
2023-05-11T05:24:10.971Z,22.80
2023-05-11T05:25:33.017Z,23.20
2023-05-11T05:26:55.172Z,23.00
2023-05-11T05:28:17.295Z,22.80
2023-05-11T05:29:42.027Z,22.30
2023-05-11T05:31:04.120Z,21.80
2023-05-11T05:32:26.324Z,21.30
2023-05-11T05:33:48.397Z,20.80
2023-05-11T05:35:10.508Z,20.40
2023-05-11T05:36:32.557Z,20.00
2023-05-11T05:37:54.599Z,19.70
2023-05-11T05:39:16.788Z,19.50
2023-05-11T05:40:39.713Z,19.50
2023-05-11T05:42:03.079Z,19.50
2023-05-11T05:43:25.180Z,19.40
2023-05-11T05:44:47.252Z,19.30
2023-05-11T05:46:09.318Z,19.10
2023-05-11T05:47:31.524Z,19.00
2023-05-11T05:48:53.570Z,19.00
2023-05-11T05:50:16.050Z,18.90
2023-05-11T05:51:38.321Z,18.80
2023-05-11T05:53:00.508Z,18.70
2023-05-11T05:54:22.570Z,18.70
2023-05-11T05:55:44.616Z,18.50
2023-05-11T05:57:06.667Z,18.40
2023-05-11T05:58:28.749Z,18.20
2023-05-11T05:59:51.033Z,18.20
2023-05-11T06:01:13.059Z,18.00
2023-05-11T06:02:35.178Z,18.00
2023-05-11T06:03:57.597Z,17.90
2023-05-11T06:05:20.092Z,17.80
2023-05-11T06:06:42.230Z,17.80
2023-05-11T06:08:10.505Z,17.80
2023-05-11T06:09:33.308Z,17.70
2023-05-11T06:10:55.401Z,17.80
2023-05-11T06:12:17.447Z,18.00
2023-05-11T06:13:39.583Z,18.20
2023-05-11T06:15:01.760Z,18.40
2023-05-11T06:16:25.294Z,18.60
2023-05-11T06:17:47.580Z,18.50
2023-05-11T06:19:09.634Z,18.50
2023-05-11T06:20:32.327Z,18.50
2023-05-11T06:21:54.357Z,18.50
2023-05-11T06:23:16.707Z,18.50
2023-05-11T06:24:38.768Z,18.50
2023-05-11T06:26:00.885Z,18.50
2023-05-11T06:27:22.915Z,18.70
2023-05-11T06:28:44.994Z,18.70
2023-05-11T06:30:07.707Z,18.90
2023-05-11T06:31:30.143Z,19.10
2023-05-11T06:32:52.330Z,19.20
2023-05-11T06:34:14.470Z,19.30
2023-05-11T06:35:37.613Z,19.50
2023-05-11T06:37:00.351Z,19.70
2023-05-11T06:38:22.475Z,19.80
2023-05-11T06:39:44.601Z,19.90
2023-05-11T06:41:07.515Z,19.90
2023-05-11T06:42:29.834Z,19.80
2023-05-11T06:43:51.964Z,19.90
2023-05-11T06:45:14.318Z,19.90
2023-05-11T06:46:36.486Z,19.80
2023-05-11T06:47:58.629Z,19.90
2023-05-11T06:49:20.759Z,20.00
2023-05-11T06:50:42.926Z,20.00
2023-05-11T06:52:05.112Z,19.90
2023-05-11T06:53:27.288Z,20.00
2023-05-11T06:54:49.390Z,20.00
2023-05-11T06:56:11.540Z,20.00
2023-05-11T06:57:33.611Z,20.00
2023-05-11T06:58:55.992Z,20.00
2023-05-11T07:00:18.712Z,20.00
2023-05-11T07:01:41.032Z,20.00
2023-05-11T07:03:03.369Z,20.10
2023-05-11T07:04:25.560Z,20.10
2023-05-11T07:05:47.814Z,20.10
2023-05-11T07:07:12.126Z,20.10
2023-05-11T07:08:34.314Z,20.30
2023-05-11T07:09:56.738Z,20.40
2023-05-11T07:11:18.960Z,20.50
2023-05-11T07:12:41.073Z,20.60
2023-05-11T07:14:03.481Z,20.70
2023-05-11T07:15:25.551Z,20.70
2023-05-11T07:16:48.032Z,20.80
2023-05-11T07:18:10.306Z,20.90
2023-05-11T07:19:32.430Z,20.90
2023-05-11T07:20:54.545Z,20.90
2023-05-11T07:22:16.623Z,20.90
2023-05-11T07:23:38.769Z,21.00
2023-05-11T07:25:01.106Z,20.90
2023-05-11T07:26:23.129Z,20.80
2023-05-11T07:27:45.165Z,20.70
2023-05-11T07:29:07.506Z,20.70
2023-05-11T07:30:29.798Z,20.70
2023-05-11T07:31:51.960Z,20.70
2023-05-11T07:33:14.016Z,20.70
2023-05-11T07:34:36.127Z,20.60
2023-05-11T07:35:58.368Z,20.60
2023-05-11T07:37:20.468Z,20.50
2023-05-11T07:38:42.640Z,20.50
2023-05-11T07:40:05.249Z,20.50
2023-05-11T07:41:28.674Z,20.50
2023-05-11T07:42:50.957Z,20.40
2023-05-11T07:44:13.097Z,20.40
2023-05-11T07:45:35.225Z,20.40
2023-05-11T07:46:58.546Z,20.50
2023-05-11T07:48:21.545Z,20.60
2023-05-11T07:49:44.529Z,20.80
2023-05-11T07:51:07.578Z,21.00
2023-05-11T07:52:29.800Z,21.20
2023-05-11T07:53:52.098Z,21.40
2023-05-11T07:55:14.581Z,21.50
2023-05-11T07:56:36.664Z,21.60
2023-05-11T07:57:58.759Z,21.80
2023-05-11T07:59:20.920Z,21.90
2023-05-11T08:00:43.089Z,22.00
2023-05-11T08:02:08.524Z,22.10
2023-05-11T08:03:31.821Z,22.10
2023-05-11T08:04:54.132Z,22.20
2023-05-11T08:06:16.282Z,22.30
2023-05-11T08:07:41.230Z,22.30
2023-05-11T08:09:03.880Z,22.30
2023-05-11T08:10:26.213Z,22.50
2023-05-11T08:11:49.700Z,22.60
2023-05-11T08:13:11.839Z,22.60
2023-05-11T08:14:33.975Z,22.70
2023-05-11T08:15:56.302Z,22.80
2023-05-11T08:17:18.426Z,22.80
2023-05-11T08:18:40.515Z,23.00
2023-05-11T08:20:04.008Z,23.20
2023-05-11T08:21:26.280Z,23.40
2023-05-11T08:22:48.836Z,23.50
2023-05-11T08:24:11.001Z,23.60
2023-05-11T08:25:33.120Z,23.80
2023-05-11T08:26:55.302Z,24.00
2023-05-11T08:28:18.259Z,24.00
2023-05-11T08:29:40.722Z,24.10
2023-05-11T08:31:02.876Z,24.20
2023-05-11T08:32:25.395Z,24.30
2023-05-11T08:33:47.704Z,24.30
2023-05-11T08:35:10.260Z,24.50
2023-05-11T08:36:33.728Z,24.70
2023-05-11T08:37:55.816Z,24.90
2023-05-11T08:39:28.532Z,25.00
2023-05-11T08:41:02.271Z,25.00
2023-05-11T08:42:25.647Z,25.20
2023-05-11T08:43:48.833Z,25.00
2023-05-11T08:45:12.273Z,24.90
2023-05-11T08:46:36.247Z,24.80
2023-05-11T08:47:59.308Z,24.80
2023-05-11T08:49:21.905Z,24.80
2023-05-11T08:50:45.657Z,24.70
2023-05-11T08:52:08.328Z,24.70
2023-05-11T08:53:30.919Z,24.70
2023-05-11T08:54:53.342Z,24.70
2023-05-11T08:56:16.737Z,24.60
2023-05-11T08:57:40.978Z,24.50
2023-05-11T08:59:05.218Z,24.50
2023-05-11T09:00:29.107Z,24.40
2023-05-11T09:01:52.465Z,24.30
2023-05-11T09:03:15.800Z,24.20
2023-05-11T09:04:38.571Z,24.10
2023-05-11T09:06:02.591Z,24.10
2023-05-11T09:07:26.700Z,24.10
2023-05-11T09:08:49.372Z,24.00
2023-05-11T09:10:13.629Z,24.00
2023-05-11T09:11:36.256Z,24.00
2023-05-11T09:12:58.348Z,24.00
2023-05-11T09:15:48.637Z,23.80
2023-05-11T09:17:10.959Z,23.80
2023-05-11T09:18:33.253Z,23.80
2023-05-11T09:20:05.621Z,23.90
2023-05-11T09:21:29.593Z,23.90
2023-05-11T09:22:51.957Z,23.90
2023-05-11T09:24:14.207Z,23.90
2023-05-11T09:25:39.619Z,23.80
2023-05-11T09:27:09.180Z,23.80
2023-05-11T09:28:36.065Z,23.80
2023-05-11T09:30:11.310Z,23.80
2023-05-11T09:31:45.036Z,23.80
2023-05-11T09:33:07.500Z,23.80
2023-05-11T09:34:29.883Z,23.80
2023-05-11T09:35:53.139Z,23.80
2023-05-11T09:37:19.083Z,23.80
2023-05-11T09:38:41.167Z,23.70
2023-05-11T09:41:34.703Z,23.70
2023-05-11T09:42:57.830Z,23.60
2023-05-11T09:44:19.992Z,23.70
2023-05-11T09:45:44.279Z,23.70
2023-05-11T09:47:17.471Z,23.60
2023-05-11T09:48:39.574Z,23.70
2023-05-11T09:50:17.242Z,23.70
2023-05-11T09:51:40.660Z,23.80
2023-05-11T09:53:02.784Z,23.90
2023-05-11T09:54:26.129Z,23.90
2023-05-11T09:55:53.294Z,24.00
2023-05-11T09:57:30.872Z,24.00
2023-05-11T09:58:55.657Z,24.00
2023-05-11T10:00:17.804Z,24.00
2023-05-11T10:01:40.928Z,24.00
2023-05-11T10:03:08.308Z,24.00
2023-05-11T10:04:30.784Z,24.00
2023-05-11T10:05:58.348Z,24.00
2023-05-11T10:07:28.079Z,24.00
2023-05-11T10:08:50.744Z,24.00
2023-05-11T10:10:13.586Z,24.00
2023-05-11T10:11:36.120Z,24.10
2023-05-11T10:13:00.112Z,24.10
2023-05-11T10:14:24.678Z,24.00
2023-05-11T10:15:50.058Z,24.00
2023-05-11T10:17:13.887Z,24.00
2023-05-11T10:18:37.070Z,24.00
2023-05-11T10:20:01.281Z,24.00
2023-05-11T10:21:23.602Z,24.10
2023-05-11T10:22:46.432Z,24.10
2023-05-11T10:24:08.941Z,24.30
2023-05-11T10:25:31.352Z,24.40
2023-05-11T10:26:53.974Z,24.50
2023-05-11T10:28:16.681Z,24.70
2023-05-11T10:29:39.304Z,24.80
2023-05-11T10:31:04.752Z,24.80
2023-05-11T10:32:27.864Z,24.90
2023-05-11T10:33:53.706Z,24.90
2023-05-11T10:35:16.172Z,24.90
2023-05-11T10:36:39.227Z,25.00
2023-05-11T10:38:01.499Z,25.00
2023-05-11T10:39:23.672Z,25.00
2023-05-11T10:40:47.172Z,24.90
2023-05-11T10:42:37.594Z,25.00
2023-05-11T10:44:33.192Z,25.00
2023-05-11T10:46:35.036Z,25.00
2023-05-11T10:48:18.588Z,24.90
2023-05-11T10:50:08.622Z,24.90
2023-05-11T10:51:55.848Z,24.90
2023-05-11T10:53:24.372Z,24.90
2023-05-11T10:55:02.320Z,25.00
2023-05-11T10:56:28.839Z,25.10
2023-05-11T10:58:10.389Z,25.10
2023-05-11T10:59:47.382Z,25.20
2023-05-11T11:01:15.350Z,25.30
2023-05-11T11:02:38.286Z,25.40
2023-05-11T11:04:05.107Z,25.50
2023-05-11T11:05:38.146Z,25.40
2023-05-11T11:07:07.419Z,25.40
2023-05-11T11:08:49.612Z,25.50
2023-05-11T11:10:13.030Z,25.50
2023-05-11T11:11:40.128Z,25.30
2023-05-11T11:13:04.015Z,25.10
2023-05-11T11:15:02.129Z,25.00
2023-05-11T11:16:26.081Z,25.10
2023-05-11T11:17:48.193Z,25.20
2023-05-11T11:19:29.197Z,25.40
2023-05-11T11:20:56.253Z,25.40
2023-05-11T11:22:51.189Z,25.30
2023-05-11T11:24:38.877Z,25.30
2023-05-11T11:26:02.921Z,25.40
2023-05-11T11:27:44.949Z,25.60
2023-05-11T11:29:11.600Z,25.70
2023-05-11T11:30:33.848Z,25.80
2023-05-11T11:31:56.281Z,26.00
2023-05-11T11:33:21.372Z,26.10
2023-05-11T11:34:44.112Z,26.00
2023-05-11T11:36:06.478Z,26.00
2023-05-11T11:37:28.649Z,26.10
2023-05-11T11:39:00.394Z,26.00
2023-05-11T11:40:47.126Z,25.70
2023-05-11T11:42:11.946Z,25.50
2023-05-11T11:43:45.597Z,25.40
2023-05-11T11:45:28.087Z,25.40
2023-05-11T11:47:16.289Z,25.50
2023-05-11T11:48:40.493Z,25.60
2023-05-11T11:50:13.576Z,25.50
2023-05-11T11:51:37.548Z,25.40
2023-05-11T11:52:59.860Z,25.30
2023-05-11T11:54:40.916Z,25.20
2023-05-11T11:56:04.270Z,25.10
2023-05-11T11:57:35.402Z,24.90
2023-05-11T11:59:01.411Z,24.80
2023-05-11T12:00:24.877Z,24.80
2023-05-11T12:01:51.905Z,24.70
2023-05-11T12:03:23.060Z,24.70
2023-05-11T12:04:52.127Z,24.80
2023-05-11T12:06:14.879Z,24.90
2023-05-11T12:07:42.932Z,24.90
2023-05-11T12:09:06.866Z,25.10
2023-05-11T12:10:29.550Z,25.10
2023-05-11T12:11:52.360Z,25.20
2023-05-11T12:13:17.842Z,25.30
2023-05-11T12:14:41.945Z,25.50
2023-05-11T12:16:10.271Z,25.50
2023-05-11T12:17:34.611Z,25.60
2023-05-11T12:19:01.470Z,25.70
2023-05-11T12:20:24.183Z,25.80
2023-05-11T12:21:46.889Z,25.80
2023-05-11T12:23:12.367Z,25.90
2023-05-11T12:24:34.561Z,25.90
2023-05-11T12:26:06.788Z,25.90
2023-05-11T12:27:28.926Z,26.00
2023-05-11T12:28:52.386Z,26.10
2023-05-11T12:30:25.492Z,26.20
2023-05-11T12:31:47.702Z,26.20
2023-05-11T12:33:14.709Z,26.10
2023-05-11T12:34:36.865Z,26.10
2023-05-11T12:35:59.065Z,26.10
2023-05-11T12:37:21.302Z,26.10
2023-05-11T12:38:47.578Z,26.10
2023-05-11T12:40:13.120Z,26.00
2023-05-11T12:41:35.238Z,26.00
2023-05-11T12:43:00.058Z,25.90
2023-05-11T12:44:24.386Z,25.90
2023-05-11T12:45:47.108Z,26.00
2023-05-11T12:47:11.078Z,26.00
2023-05-11T12:48:33.204Z,26.20
2023-05-11T12:49:55.373Z,26.30
2023-05-11T12:52:12.411Z,26.40
2023-05-11T12:53:39.610Z,26.60
2023-05-11T12:55:01.710Z,26.50
2023-05-11T12:56:23.791Z,26.40
2023-05-11T12:57:45.835Z,26.30
2023-05-11T12:59:29.998Z,26.30
2023-05-11T13:00:59.747Z,26.30
2023-05-11T13:02:22.100Z,26.40
2023-05-11T13:03:47.266Z,26.40
2023-05-11T13:05:13.925Z,26.60
2023-05-11T13:06:36.368Z,26.70
2023-05-11T13:08:03.459Z,26.80
2023-05-11T13:09:26.162Z,27.10
2023-05-11T13:10:48.358Z,27.20
2023-05-11T13:12:17.934Z,27.40
2023-05-11T13:13:40.025Z,27.40
2023-05-11T13:15:05.344Z,27.40
2023-05-11T13:16:29.616Z,27.20
2023-05-11T13:18:03.666Z,27.00
2023-05-11T13:19:30.266Z,26.80
2023-05-11T13:21:07.679Z,26.70
2023-05-11T13:22:29.712Z,26.60
2023-05-11T13:23:54.379Z,26.60
2023-05-11T13:25:20.237Z,26.50
2023-05-11T13:26:42.563Z,26.30
2023-05-11T13:28:04.731Z,26.10
2023-05-11T13:29:27.251Z,25.90
2023-05-11T13:30:51.416Z,25.70
2023-05-11T13:32:13.610Z,25.50
2023-05-11T13:33:35.698Z,25.50
2023-05-11T13:34:57.781Z,25.30
2023-05-11T13:36:19.997Z,25.20
2023-05-11T13:37:42.090Z,25.10
2023-05-11T13:39:04.166Z,25.00
2023-05-11T13:40:26.233Z,25.10
2023-05-11T13:41:48.533Z,25.10
2023-05-11T13:43:10.654Z,25.00
2023-05-11T13:44:32.763Z,25.00
2023-05-11T13:45:55.278Z,25.00
2023-05-11T13:47:17.352Z,25.10
2023-05-11T13:48:39.452Z,25.10
2023-05-11T13:50:01.937Z,25.10
2023-05-11T13:51:23.999Z,25.20
2023-05-11T13:52:46.857Z,25.10
2023-05-11T13:54:08.999Z,25.10
2023-05-11T13:55:32.319Z,25.10
2023-05-11T13:56:54.431Z,25.10
2023-05-11T13:58:17.776Z,25.20
2023-05-11T13:59:39.910Z,25.30
2023-05-11T14:01:07.657Z,25.40
2023-05-11T14:02:30.294Z,25.40
2023-05-11T14:03:53.551Z,25.20
2023-05-11T14:05:16.336Z,25.10
2023-05-11T14:06:38.673Z,25.00
2023-05-11T14:08:00.801Z,24.90
2023-05-11T14:09:23.576Z,24.90
2023-05-11T14:10:45.834Z,24.90
2023-05-11T14:12:08.236Z,25.00
2023-05-11T14:13:30.423Z,25.10
2023-05-11T14:14:52.644Z,25.20
2023-05-11T14:16:14.858Z,25.30
2023-05-11T14:17:37.242Z,25.40
2023-05-11T14:18:59.618Z,25.50
2023-05-11T14:20:21.776Z,25.60
2023-05-11T14:21:43.882Z,25.80
2023-05-11T14:23:06.493Z,25.90
2023-05-11T14:24:28.501Z,26.00
2023-05-11T14:25:50.532Z,26.10
2023-05-11T14:27:12.720Z,26.20
2023-05-11T14:28:34.815Z,26.30
2023-05-11T14:29:56.868Z,26.30
2023-05-11T14:31:19.133Z,26.20
2023-05-11T14:32:41.451Z,26.10
2023-05-11T14:34:04.364Z,26.00
2023-05-11T14:35:26.403Z,25.90
2023-05-11T14:36:48.646Z,25.80
2023-05-11T14:38:10.717Z,25.70
2023-05-11T14:39:32.844Z,25.60
2023-05-11T14:40:55.028Z,25.50
2023-05-11T14:42:17.160Z,25.50
2023-05-11T14:43:41.954Z,25.50
2023-05-11T14:45:05.349Z,25.50
2023-05-11T14:46:27.951Z,25.50
2023-05-11T14:47:50.377Z,25.40
2023-05-11T14:49:12.497Z,25.30
2023-05-11T14:50:34.853Z,25.30
2023-05-11T14:51:57.796Z,25.20
2023-05-11T14:53:19.850Z,25.20
2023-05-11T14:54:42.492Z,25.20
2023-05-11T14:56:04.923Z,25.20
2023-05-11T14:57:27.162Z,25.30
2023-05-11T14:58:49.539Z,25.40
2023-05-11T15:00:13.216Z,25.60
2023-05-11T15:01:35.459Z,25.70
2023-05-11T15:02:57.998Z,25.70
2023-05-11T15:04:20.408Z,25.70
2023-05-11T15:05:42.612Z,25.60
2023-05-11T15:07:04.757Z,25.50
2023-05-11T15:08:30.517Z,25.40
2023-05-11T15:09:53.141Z,25.40
2023-05-11T15:11:15.392Z,25.40
2023-05-11T15:12:37.432Z,25.60
2023-05-11T15:13:59.462Z,25.70
2023-05-11T15:15:21.661Z,25.70
2023-05-11T15:16:43.831Z,25.70
2023-05-11T15:18:06.170Z,25.80
2023-05-11T15:19:28.226Z,25.70
2023-05-11T15:20:50.311Z,25.70
2023-05-11T15:22:12.661Z,25.60
2023-05-11T15:23:34.756Z,25.50
2023-05-11T15:24:56.833Z,25.50
2023-05-11T15:26:18.938Z,25.50
2023-05-11T15:27:41.196Z,25.20
2023-05-11T15:29:03.731Z,25.10
2023-05-11T15:30:25.903Z,25.00
2023-05-11T15:31:48.043Z,24.90
2023-05-11T15:33:10.590Z,24.90
2023-05-11T15:34:32.714Z,24.80
2023-05-11T15:35:54.780Z,24.60
2023-05-11T15:37:17.196Z,24.60
2023-05-11T15:38:39.877Z,24.60
2023-05-11T15:40:01.937Z,24.60
2023-05-11T15:41:24.058Z,24.60
2023-05-11T15:42:46.253Z,24.60
2023-05-11T15:44:08.322Z,24.60
2023-05-11T15:45:30.483Z,24.70
2023-05-11T15:46:52.655Z,24.70
2023-05-11T15:48:15.102Z,24.70
2023-05-11T15:49:37.192Z,24.70
2023-05-11T15:51:00.127Z,24.60
2023-05-11T15:52:22.321Z,24.30
2023-05-11T15:53:44.450Z,24.20
2023-05-11T15:55:07.385Z,24.00
2023-05-11T15:56:29.493Z,23.70
2023-05-11T15:57:51.678Z,23.50
2023-05-11T15:59:13.777Z,23.40
2023-05-11T16:00:35.993Z,23.30
2023-05-11T16:01:58.103Z,23.20
2023-05-11T16:03:20.585Z,23.00
2023-05-11T16:04:42.839Z,23.00
2023-05-11T16:06:05.334Z,23.00
2023-05-11T16:07:27.555Z,22.90
2023-05-11T16:08:49.621Z,22.70
2023-05-11T16:10:11.700Z,22.60
2023-05-11T16:11:33.863Z,22.40
2023-05-11T16:12:58.247Z,22.20
2023-05-11T16:14:21.290Z,22.00
2023-05-11T16:15:43.625Z,21.90
2023-05-11T16:17:06.974Z,21.70
2023-05-11T16:18:29.104Z,21.70
2023-05-11T16:19:51.264Z,21.60
2023-05-11T16:21:14.575Z,21.40
2023-05-11T16:22:38.746Z,21.40
2023-05-11T16:24:00.780Z,21.40
2023-05-11T16:25:24.025Z,21.40
2023-05-11T16:26:46.207Z,21.40
2023-05-11T16:28:08.304Z,21.40
2023-05-11T16:29:30.465Z,21.40
2023-05-11T16:30:52.564Z,21.40
2023-05-11T16:32:14.689Z,21.40
2023-05-11T16:33:39.534Z,21.40
2023-05-11T16:35:01.602Z,21.40
2023-05-11T16:36:23.796Z,21.40
2023-05-11T16:37:47.702Z,21.30
2023-05-11T16:39:10.441Z,21.30
2023-05-11T16:40:32.986Z,21.30
2023-05-11T16:41:55.293Z,21.20
2023-05-11T16:43:17.412Z,21.10
2023-05-11T16:44:39.550Z,21.00
2023-05-11T16:46:02.716Z,20.90
2023-05-11T16:47:24.889Z,21.00
2023-05-11T16:48:47.087Z,20.90
2023-05-11T16:50:09.878Z,20.90
2023-05-11T16:51:32.478Z,20.90
2023-05-11T16:52:54.977Z,21.00
2023-05-11T16:54:17.042Z,21.00
2023-05-11T16:55:39.361Z,21.10
2023-05-11T16:57:01.468Z,21.20
2023-05-11T16:58:24.570Z,21.40
2023-05-11T16:59:46.653Z,21.40
2023-05-11T17:01:08.799Z,21.50
2023-05-11T17:02:31.378Z,21.40
2023-05-11T17:03:53.530Z,21.30
2023-05-11T17:05:17.955Z,21.20
2023-05-11T17:06:40.112Z,21.20
2023-05-11T17:08:02.174Z,21.20
2023-05-11T17:09:24.506Z,21.30
2023-05-11T17:10:46.673Z,21.20
2023-05-11T17:12:10.484Z,21.20
2023-05-11T17:13:32.581Z,21.10
2023-05-11T17:14:54.703Z,21.00
2023-05-11T17:16:16.930Z,20.90
2023-05-11T17:17:39.415Z,20.90
2023-05-11T17:19:01.586Z,20.80
2023-05-11T17:20:23.789Z,20.80
2023-05-11T17:21:45.958Z,20.80
2023-05-11T17:23:08.125Z,20.70
2023-05-11T17:24:30.496Z,20.60
2023-05-11T17:25:52.602Z,20.60
2023-05-11T17:27:14.651Z,20.50
2023-05-11T17:28:40.094Z,20.50
2023-05-11T17:30:02.214Z,20.40
2023-05-11T17:31:24.445Z,20.30
2023-05-11T17:32:47.139Z,20.20
2023-05-11T17:34:09.506Z,20.20
2023-05-11T17:35:33.224Z,20.10
2023-05-11T17:36:55.539Z,20.00
2023-05-11T17:38:17.805Z,20.00
2023-05-11T17:39:39.832Z,19.90
2023-05-11T17:41:05.421Z,19.90
2023-05-11T17:42:28.286Z,19.80
2023-05-11T17:43:50.350Z,19.70
2023-05-11T17:45:13.166Z,19.70
2023-05-11T17:46:35.812Z,19.60
2023-05-11T17:47:58.038Z,19.60
2023-05-11T17:49:20.321Z,19.50
2023-05-11T17:50:43.041Z,19.40
2023-05-11T17:52:05.550Z,19.40
2023-05-11T17:53:27.638Z,19.30
2023-05-11T17:54:49.739Z,19.20
2023-05-11T17:56:13.205Z,19.20
2023-05-11T17:57:35.316Z,19.20
2023-05-11T17:58:57.482Z,19.10
2023-05-11T18:00:20.225Z,19.10
2023-05-11T18:01:43.120Z,19.00
2023-05-11T18:03:05.704Z,18.90
2023-05-11T18:04:28.040Z,18.90
2023-05-11T18:05:50.245Z,18.80
2023-05-11T18:07:12.605Z,18.70
2023-05-11T18:08:36.556Z,18.70